sensor_id;sensor_type;location;lat;lon;timestamp;pressure;altitude;pressure_sealevel;temperature;humidity
62703;BME280;66022;50.448;18.122;2023-03-14T00:00:44;97599.86;;;11.31;59.18
62703;BME280;66022;50.448;18.122;2023-03-14T00:04:58;97590.67;;;11.34;59.02
62703;BME280;66022;50.448;18.122;2023-03-14T00:09:12;97583.69;;;11.36;59.14
62703;BME280;66022;50.448;18.122;2023-03-14T00:13:26;97576.50;;;11.36;58.50
62703;BME280;66022;50.448;18.122;2023-03-14T00:17:40;97574.63;;;11.40;58.78
62703;BME280;66022;50.448;18.122;2023-03-14T00:21:54;97572.38;;;11.41;58.38
62703;BME280;66022;50.448;18.122;2023-03-14T00:26:09;97569.23;;;11.43;58.65
62703;BME280;66022;50.448;18.122;2023-03-14T00:30:22;97566.09;;;11.45;58.82
62703;BME280;66022;50.448;18.122;2023-03-14T00:34:36;97560.05;;;11.45;58.65
62703;BME280;66022;50.448;18.122;2023-03-14T00:38:50;97549.78;;;11.45;58.98
62703;BME280;66022;50.448;18.122;2023-03-14T00:43:04;97535.26;;;11.43;58.58
62703;BME280;66022;50.448;18.122;2023-03-14T00:47:18;97523.99;;;11.44;58.88
62703;BME280;66022;50.448;18.122;2023-03-14T00:51:32;97517.39;;;11.44;58.19
62703;BME280;66022;50.448;18.122;2023-03-14T00:55:46;97512.17;;;11.45;58.63
62703;BME280;66022;50.448;18.122;2023-03-14T01:00:00;97506.20;;;11.47;58.79
62703;BME280;66022;50.448;18.122;2023-03-14T01:04:14;97501.25;;;11.48;58.41
62703;BME280;66022;50.448;18.122;2023-03-14T01:08:28;97493.56;;;11.51;58.50
62703;BME280;66022;50.448;18.122;2023-03-14T01:12:48;97489.62;;;11.52;58.63
62703;BME280;66022;50.448;18.122;2023-03-14T01:16:57;97488.09;;;11.53;58.49
62703;BME280;66022;50.448;18.122;2023-03-14T01:25:24;97477.01;;;11.52;58.72
62703;BME280;66022;50.448;18.122;2023-03-14T01:29:38;97467.42;;;11.52;58.99
62703;BME280;66022;50.448;18.122;2023-03-14T01:33:52;97462.05;;;11.50;58.78
62703;BME280;66022;50.448;18.122;2023-03-14T01:38:06;97457.78;;;11.50;59.10
62703;BME280;66022;50.448;18.122;2023-03-14T01:42:20;97458.67;;;11.47;58.73
62703;BME280;66022;50.448;18.122;2023-03-14T01:50:48;97461.58;;;11.45;58.03
62703;BME280;66022;50.448;18.122;2023-03-14T01:59:16;97457.82;;;11.44;58.90
62703;BME280;66022;50.448;18.122;2023-03-14T02:03:30;97453.27;;;11.41;58.45
62703;BME280;66022;50.448;18.122;2023-03-14T02:07:49;97447.13;;;11.43;58.60
62703;BME280;66022;50.448;18.122;2023-03-14T02:11:58;97439.12;;;11.43;58.47
62703;BME280;66022;50.448;18.122;2023-03-14T02:16:12;97433.89;;;11.45;58.50
62703;BME280;66022;50.448;18.122;2023-03-14T02:28:54;97429.49;;;11.50;58.93
62703;BME280;66022;50.448;18.122;2023-03-14T02:33:09;97431.58;;;11.48;59.31
62703;BME280;66022;50.448;18.122;2023-03-14T02:37:23;97438.28;;;11.50;59.14
62703;BME280;66022;50.448;18.122;2023-03-14T02:41:36;97450.37;;;11.45;59.05
62703;BME280;66022;50.448;18.122;2023-03-14T02:45:51;97467.15;;;11.43;59.76
62703;BME280;66022;50.448;18.122;2023-03-14T02:50:06;97484.42;;;11.39;60.26
62703;BME280;66022;50.448;18.122;2023-03-14T02:54:18;97493.64;;;11.34;60.58
62703;BME280;66022;50.448;18.122;2023-03-14T02:58:32;97500.78;;;11.30;60.41
62703;BME280;66022;50.448;18.122;2023-03-14T03:02:46;97509.66;;;11.26;60.64
62703;BME280;66022;50.448;18.122;2023-03-14T03:07:00;97514.68;;;11.23;60.00
62703;BME280;66022;50.448;18.122;2023-03-14T03:11:14;97517.80;;;11.18;59.39
62703;BME280;66022;50.448;18.122;2023-03-14T03:15:29;97522.85;;;11.18;60.42
62703;BME280;66022;50.448;18.122;2023-03-14T03:19:42;97524.52;;;11.19;60.00
62703;BME280;66022;50.448;18.122;2023-03-14T03:23:56;97522.75;;;11.17;60.03
62703;BME280;66022;50.448;18.122;2023-03-14T03:28:10;97522.75;;;11.17;60.42
62703;BME280;66022;50.448;18.122;2023-03-14T03:32:24;97526.15;;;11.14;60.53
62703;BME280;66022;50.448;18.122;2023-03-14T03:36:38;97530.10;;;11.13;60.21
62703;BME280;66022;50.448;18.122;2023-03-14T03:40:52;97532.26;;;11.08;59.91
62703;BME280;66022;50.448;18.122;2023-03-14T03:45:06;97531.97;;;11.06;60.38
62703;BME280;66022;50.448;18.122;2023-03-14T03:49:20;97528.25;;;11.05;60.73
62703;BME280;66022;50.448;18.122;2023-03-14T03:53:34;97521.20;;;11.02;60.38
62703;BME280;66022;50.448;18.122;2023-03-14T03:57:48;97513.40;;;11.03;60.33
62703;BME280;66022;50.448;18.122;2023-03-14T04:02:02;97504.91;;;10.99;60.91
62703;BME280;66022;50.448;18.122;2023-03-14T04:06:16;97496.45;;;10.97;60.83
62703;BME280;66022;50.448;18.122;2023-03-14T04:10:33;97487.02;;;10.95;60.83
62703;BME280;66022;50.448;18.122;2023-03-14T04:14:45;97477.04;;;10.93;60.67
62703;BME280;66022;50.448;18.122;2023-03-14T04:18:58;97466.66;;;10.92;60.69
62703;BME280;66022;50.448;18.122;2023-03-14T04:23:12;97457.74;;;10.87;60.28
62703;BME280;66022;50.448;18.122;2023-03-14T04:27:26;97447.29;;;10.87;60.61
62703;BME280;66022;50.448;18.122;2023-03-14T04:31:40;97439.11;;;10.84;60.32
62703;BME280;66022;50.448;18.122;2023-03-14T04:35:54;97434.20;;;10.84;60.08
62703;BME280;66022;50.448;18.122;2023-03-14T04:40:09;97431.41;;;10.85;60.37
62703;BME280;66022;50.448;18.122;2023-03-14T04:44:22;97429.33;;;10.84;60.31
62703;BME280;66022;50.448;18.122;2023-03-14T04:48:36;97428.11;;;10.85;59.95
62703;BME280;66022;50.448;18.122;2023-03-14T04:52:50;97425.53;;;10.85;60.24
62703;BME280;66022;50.448;18.122;2023-03-14T04:57:04;97420.59;;;10.83;59.97
62703;BME280;66022;50.448;18.122;2023-03-14T05:01:18;97413.51;;;10.75;60.14
62703;BME280;66022;50.448;18.122;2023-03-14T05:05:32;97406.37;;;10.72;60.65
62703;BME280;66022;50.448;18.122;2023-03-14T05:09:46;97400.20;;;10.69;60.89
62703;BME280;66022;50.448;18.122;2023-03-14T05:14:01;97397.63;;;10.66;60.78
62703;BME280;66022;50.448;18.122;2023-03-14T05:18:14;97394.78;;;10.64;60.53
62703;BME280;66022;50.448;18.122;2023-03-14T05:22:28;97393.13;;;10.60;60.71
62703;BME280;66022;50.448;18.122;2023-03-14T05:26:42;97388.56;;;10.58;60.79
62703;BME280;66022;50.448;18.122;2023-03-14T05:30:56;97380.02;;;10.52;60.04
62703;BME280;66022;50.448;18.122;2023-03-14T05:35:10;97370.26;;;10.50;60.77
62703;BME280;66022;50.448;18.122;2023-03-14T05:39:25;97361.64;;;10.47;60.92
62703;BME280;66022;50.448;18.122;2023-03-14T05:43:38;97354.88;;;10.43;60.60
62703;BME280;66022;50.448;18.122;2023-03-14T05:48:00;97347.25;;;10.44;60.87
62703;BME280;66022;50.448;18.122;2023-03-14T05:52:14;97339.56;;;10.43;60.66
62703;BME280;66022;50.448;18.122;2023-03-14T05:56:22;97326.76;;;10.43;60.57
62703;BME280;66022;50.448;18.122;2023-03-14T06:00:35;97314.11;;;10.43;60.76
62703;BME280;66022;50.448;18.122;2023-03-14T06:04:48;97306.89;;;10.43;60.73
62703;BME280;66022;50.448;18.122;2023-03-14T06:09:03;97298.10;;;10.43;60.69
62703;BME280;66022;50.448;18.122;2023-03-14T06:13:16;97293.08;;;10.39;60.38
62703;BME280;66022;50.448;18.122;2023-03-14T06:17:30;97289.26;;;10.41;60.76
62703;BME280;66022;50.448;18.122;2023-03-14T06:21:44;97285.24;;;10.41;60.97
62703;BME280;66022;50.448;18.122;2023-03-14T06:25:58;97281.19;;;10.45;60.67
62703;BME280;66022;50.448;18.122;2023-03-14T06:30:12;97274.93;;;10.47;60.80
62703;BME280;66022;50.448;18.122;2023-03-14T06:34:26;97269.45;;;10.48;60.56
62703;BME280;66022;50.448;18.122;2023-03-14T06:38:40;97267.86;;;10.50;60.54
62703;BME280;66022;50.448;18.122;2023-03-14T06:42:54;97267.44;;;10.52;60.60
62703;BME280;66022;50.448;18.122;2023-03-14T06:47:08;97269.84;;;10.56;62.85
62703;BME280;66022;50.448;18.122;2023-03-14T06:51:22;97271.45;;;10.56;60.24
62703;BME280;66022;50.448;18.122;2023-03-14T06:55:36;97269.40;;;10.61;60.12
62703;BME280;66022;50.448;18.122;2023-03-14T06:59:50;97268.66;;;10.67;59.84
62703;BME280;66022;50.448;18.122;2023-03-14T07:04:04;97274.69;;;10.73;59.62
62703;BME280;66022;50.448;18.122;2023-03-14T07:08:18;97286.77;;;10.82;58.77
62703;BME280;66022;50.448;18.122;2023-03-14T07:12:32;97297.79;;;10.90;59.93
62703;BME280;66022;50.448;18.122;2023-03-14T07:16:46;97305.89;;;10.99;59.53
62703;BME280;66022;50.448;18.122;2023-03-14T07:21:00;97315.01;;;11.03;58.88
62703;BME280;66022;50.448;18.122;2023-03-14T07:25:14;97323.27;;;11.08;59.33
62703;BME280;66022;50.448;18.122;2023-03-14T07:29:28;97325.22;;;11.12;59.34
62703;BME280;66022;50.448;18.122;2023-03-14T07:33:42;97331.50;;;11.13;58.95
62703;BME280;66022;50.448;18.122;2023-03-14T07:37:56;97336.58;;;11.16;59.65
62703;BME280;66022;50.448;18.122;2023-03-14T07:42:10;97340.20;;;11.18;59.35
62703;BME280;66022;50.448;18.122;2023-03-14T07:46:24;97343.27;;;11.22;59.98
62703;BME280;66022;50.448;18.122;2023-03-14T07:50:38;97341.50;;;11.28;59.78
62703;BME280;66022;50.448;18.122;2023-03-14T07:54:52;97339.81;;;11.34;59.43
62703;BME280;66022;50.448;18.122;2023-03-14T07:59:06;97340.52;;;11.41;59.70
62703;BME280;66022;50.448;18.122;2023-03-14T08:03:20;97342.67;;;11.45;59.86
62703;BME280;66022;50.448;18.122;2023-03-14T08:07:34;97348.78;;;11.54;59.27
62703;BME280;66022;50.448;18.122;2023-03-14T08:11:48;97353.20;;;11.61;59.21
62703;BME280;66022;50.448;18.122;2023-03-14T08:16:02;97357.42;;;11.70;59.59
62703;BME280;66022;50.448;18.122;2023-03-14T08:20:19;97362.81;;;11.76;59.50
62703;BME280;66022;50.448;18.122;2023-03-14T08:24:30;97369.90;;;11.80;59.63
62703;BME280;66022;50.448;18.122;2023-03-14T08:28:44;97375.02;;;11.84;60.00
62703;BME280;66022;50.448;18.122;2023-03-14T08:32:58;97375.27;;;11.83;59.41
62703;BME280;66022;50.448;18.122;2023-03-14T08:37:12;97376.76;;;11.84;61.62
62703;BME280;66022;50.448;18.122;2023-03-14T08:41:26;97379.07;;;11.82;59.80
62703;BME280;66022;50.448;18.122;2023-03-14T08:45:40;97379.63;;;11.84;60.31
62703;BME280;66022;50.448;18.122;2023-03-14T08:49:54;97378.34;;;11.85;60.51
62703;BME280;66022;50.448;18.122;2023-03-14T08:54:11;97378.91;;;11.82;60.87
62703;BME280;66022;50.448;18.122;2023-03-14T08:58:22;97377.00;;;11.82;61.20
62703;BME280;66022;50.448;18.122;2023-03-14T09:02:36;97378.63;;;11.80;61.69
62703;BME280;66022;50.448;18.122;2023-03-14T09:06:50;97379.58;;;11.79;61.35
62703;BME280;66022;50.448;18.122;2023-03-14T09:11:06;97378.86;;;11.77;60.96
62703;BME280;66022;50.448;18.122;2023-03-14T09:15:18;97380.94;;;11.81;60.80
62703;BME280;66022;50.448;18.122;2023-03-14T09:19:32;97386.53;;;11.84;60.52
62703;BME280;66022;50.448;18.122;2023-03-14T09:23:46;97393.33;;;11.84;60.65
62703;BME280;66022;50.448;18.122;2023-03-14T09:28:00;97394.39;;;11.85;60.65
62703;BME280;66022;50.448;18.122;2023-03-14T09:32:14;97393.42;;;11.84;60.76
62703;BME280;66022;50.448;18.122;2023-03-14T09:36:28;97392.53;;;11.87;60.67
62703;BME280;66022;50.448;18.122;2023-03-14T09:40:42;97389.51;;;11.89;61.28
62703;BME280;66022;50.448;18.122;2023-03-14T09:45:00;97387.73;;;11.91;60.91
62703;BME280;66022;50.448;18.122;2023-03-14T09:49:11;97383.58;;;11.93;60.97
62703;BME280;66022;50.448;18.122;2023-03-14T09:53:46;97379.41;;;11.93;60.97
62703;BME280;66022;50.448;18.122;2023-03-14T09:57:39;97377.48;;;11.97;61.34
62703;BME280;66022;50.448;18.122;2023-03-14T10:01:52;97379.35;;;11.98;61.64
62703;BME280;66022;50.448;18.122;2023-03-14T10:10:21;97386.52;;;12.02;61.90
62703;BME280;66022;50.448;18.122;2023-03-14T10:14:36;97391.39;;;12.02;61.73
62703;BME280;66022;50.448;18.122;2023-03-14T10:18:49;97398.33;;;12.02;62.07
62703;BME280;66022;50.448;18.122;2023-03-14T10:27:21;97409.26;;;11.94;62.75
62703;BME280;66022;50.448;18.122;2023-03-14T10:31:45;97414.34;;;11.86;65.00
62703;BME280;66022;50.448;18.122;2023-03-14T10:35:46;97420.64;;;11.82;66.40
62703;BME280;66022;50.448;18.122;2023-03-14T10:39:59;97424.89;;;11.77;67.22
62703;BME280;66022;50.448;18.122;2023-03-14T10:44:13;97428.16;;;11.70;68.06
62703;BME280;66022;50.448;18.122;2023-03-14T10:52:46;97431.37;;;11.59;69.59
62703;BME280;66022;50.448;18.122;2023-03-14T10:56:58;97433.70;;;11.53;71.12
62703;BME280;66022;50.448;18.122;2023-03-14T11:01:15;97437.73;;;11.44;71.63
62703;BME280;66022;50.448;18.122;2023-03-14T11:13:54;97443.67;;;11.32;69.86
62703;BME280;66022;50.448;18.122;2023-03-14T11:22:37;97442.53;;;11.27;70.22
62703;BME280;66022;50.448;18.122;2023-03-14T11:26:37;97440.22;;;11.25;69.86
62703;BME280;66022;50.448;18.122;2023-03-14T11:30:51;97434.08;;;11.23;70.16
62703;BME280;66022;50.448;18.122;2023-03-14T11:35:02;97428.90;;;11.24;70.02
62703;BME280;66022;50.448;18.122;2023-03-14T11:39:16;97424.84;;;11.26;70.41
62703;BME280;66022;50.448;18.122;2023-03-14T11:43:30;97422.63;;;11.25;72.25
62703;BME280;66022;50.448;18.122;2023-03-14T11:47:43;97421.45;;;11.27;71.17
62703;BME280;66022;50.448;18.122;2023-03-14T11:52:01;97417.52;;;11.26;71.65
62703;BME280;66022;50.448;18.122;2023-03-14T11:56:13;97412.23;;;11.27;70.14
62703;BME280;66022;50.448;18.122;2023-03-14T12:00:25;97405.38;;;11.27;70.24
62703;BME280;66022;50.448;18.122;2023-03-14T12:04:43;97400.20;;;11.26;70.28
62703;BME280;66022;50.448;18.122;2023-03-14T12:08:53;97396.37;;;11.25;71.00
62703;BME280;66022;50.448;18.122;2023-03-14T12:13:08;97391.25;;;11.22;71.11
62703;BME280;66022;50.448;18.122;2023-03-14T12:25:49;97376.93;;;11.19;72.06
62703;BME280;66022;50.448;18.122;2023-03-14T12:30:03;97373.89;;;11.19;72.05
62703;BME280;66022;50.448;18.122;2023-03-14T12:46:59;97369.87;;;11.15;73.02
62703;BME280;66022;50.448;18.122;2023-03-14T12:51:14;97368.66;;;11.11;77.59
62703;BME280;66022;50.448;18.122;2023-03-14T12:55:33;97365.74;;;11.11;74.17
62703;BME280;66022;50.448;18.122;2023-03-14T13:03:56;97357.05;;;11.08;75.50
62703;BME280;66022;50.448;18.122;2023-03-14T13:08:09;97355.38;;;11.08;75.46
62703;BME280;66022;50.448;18.122;2023-03-14T13:12:23;97356.33;;;11.06;77.49
62703;BME280;66022;50.448;18.122;2023-03-14T13:16:37;97358.17;;;11.06;75.98
62703;BME280;66022;50.448;18.122;2023-03-14T13:20:54;97355.44;;;11.04;78.45
62703;BME280;66022;50.448;18.122;2023-03-14T13:25:06;97350.76;;;11.04;76.08
62703;BME280;66022;50.448;18.122;2023-03-14T13:29:20;97349.66;;;11.04;76.00
62703;BME280;66022;50.448;18.122;2023-03-14T13:33:33;97346.58;;;11.02;76.96
62703;BME280;66022;50.448;18.122;2023-03-14T13:37:48;97342.80;;;11.03;77.42
62703;BME280;66022;50.448;18.122;2023-03-14T13:42:01;97341.38;;;11.01;78.14
62703;BME280;66022;50.448;18.122;2023-03-14T13:46:16;97341.83;;;11.02;76.59
62703;BME280;66022;50.448;18.122;2023-03-14T13:50:29;97341.60;;;11.03;76.20
62703;BME280;66022;50.448;18.122;2023-03-14T13:54:43;97342.79;;;11.05;77.06
62703;BME280;66022;50.448;18.122;2023-03-14T13:58:57;97345.00;;;11.06;76.34
62703;BME280;66022;50.448;18.122;2023-03-14T14:03:11;97344.37;;;11.05;76.67
62703;BME280;66022;50.448;18.122;2023-03-14T14:07:25;97341.42;;;11.08;75.87
62703;BME280;66022;50.448;18.122;2023-03-14T14:11:43;97340.78;;;11.09;77.91
62703;BME280;66022;50.448;18.122;2023-03-14T14:15:53;97341.80;;;11.12;76.32
62703;BME280;66022;50.448;18.122;2023-03-14T14:20:08;97341.44;;;11.14;76.17
62703;BME280;66022;50.448;18.122;2023-03-14T14:24:22;97339.34;;;11.15;76.61
62703;BME280;66022;50.448;18.122;2023-03-14T14:28:36;97339.36;;;11.18;76.68
62703;BME280;66022;50.448;18.122;2023-03-14T14:32:50;97338.78;;;11.19;76.60
62703;BME280;66022;50.448;18.122;2023-03-14T14:37:03;97335.44;;;11.22;77.27
62703;BME280;66022;50.448;18.122;2023-03-14T14:41:17;97331.91;;;11.22;78.97
62703;BME280;66022;50.448;18.122;2023-03-14T14:45:33;97327.06;;;11.26;76.45
62703;BME280;66022;50.448;18.122;2023-03-14T14:49:46;97322.49;;;11.29;76.44
62703;BME280;66022;50.448;18.122;2023-03-14T14:54:01;97314.64;;;11.32;76.65
62703;BME280;66022;50.448;18.122;2023-03-14T15:06:45;97287.48;;;11.41;76.44
62703;BME280;66022;50.448;18.122;2023-03-14T15:10:57;97275.73;;;11.42;79.43
62703;BME280;66022;50.448;18.122;2023-03-14T15:15:10;97260.67;;;11.45;76.35
62703;BME280;66022;50.448;18.122;2023-03-14T15:19:24;97241.97;;;11.48;76.17
62703;BME280;66022;50.448;18.122;2023-03-14T15:23:37;97240.77;;;11.50;76.14
62703;BME280;66022;50.448;18.122;2023-03-14T15:27:59;97251.01;;;11.55;75.82
62703;BME280;66022;50.448;18.122;2023-03-14T15:32:08;97259.94;;;11.57;76.84
62703;BME280;66022;50.448;18.122;2023-03-14T15:36:22;97268.48;;;11.61;75.64
62703;BME280;66022;50.448;18.122;2023-03-14T15:40:33;97276.95;;;11.64;75.71
62703;BME280;66022;50.448;18.122;2023-03-14T15:44:47;97283.92;;;11.68;75.27
62703;BME280;66022;50.448;18.122;2023-03-14T15:49:01;97292.10;;;11.70;75.85
62703;BME280;66022;50.448;18.122;2023-03-14T15:53:15;97298.85;;;11.68;75.88
62703;BME280;66022;50.448;18.122;2023-03-14T15:57:29;97303.92;;;11.70;75.13
62703;BME280;66022;50.448;18.122;2023-03-14T16:01:43;97306.55;;;11.69;76.21
62703;BME280;66022;50.448;18.122;2023-03-14T16:05:57;97306.30;;;11.70;75.02
62703;BME280;66022;50.448;18.122;2023-03-14T16:10:12;97306.16;;;11.72;74.97
62703;BME280;66022;50.448;18.122;2023-03-14T16:14:25;97305.15;;;11.71;74.98
62703;BME280;66022;50.448;18.122;2023-03-14T16:18:39;97304.81;;;11.71;74.76
62703;BME280;66022;50.448;18.122;2023-03-14T16:22:53;97304.25;;;11.70;75.19
62703;BME280;66022;50.448;18.122;2023-03-14T16:27:07;97303.92;;;11.70;74.94
62703;BME280;66022;50.448;18.122;2023-03-14T16:31:21;97303.56;;;11.65;77.28
62703;BME280;66022;50.448;18.122;2023-03-14T16:35:36;97303.78;;;11.66;74.59
62703;BME280;66022;50.448;18.122;2023-03-14T16:39:49;97303.55;;;11.66;74.47
62703;BME280;66022;50.448;18.122;2023-03-14T16:44:03;97302.50;;;11.63;73.23
62703;BME280;66022;50.448;18.122;2023-03-14T16:48:17;97300.81;;;11.61;72.53
62703;BME280;66022;50.448;18.122;2023-03-14T16:52:31;97300.78;;;11.57;71.80
62703;BME280;66022;50.448;18.122;2023-03-14T16:56:45;97301.70;;;11.55;71.22
62703;BME280;66022;50.448;18.122;2023-03-14T17:00:59;97303.13;;;11.51;72.68
62703;BME280;66022;50.448;18.122;2023-03-14T17:05:13;97306.36;;;11.51;71.59
62703;BME280;66022;50.448;18.122;2023-03-14T17:09:27;97310.39;;;11.52;72.70
62703;BME280;66022;50.448;18.122;2023-03-14T17:13:41;97313.50;;;11.50;73.47
62703;BME280;66022;50.448;18.122;2023-03-14T17:17:55;97318.80;;;11.51;73.05
62703;BME280;66022;50.448;18.122;2023-03-14T17:22:09;97323.89;;;11.47;73.05
62703;BME280;66022;50.448;18.122;2023-03-14T17:26:23;97327.69;;;11.44;72.80
62703;BME280;66022;50.448;18.122;2023-03-14T17:30:37;97331.92;;;11.40;72.79
62703;BME280;66022;50.448;18.122;2023-03-14T17:34:51;97336.47;;;11.35;72.89
62703;BME280;66022;50.448;18.122;2023-03-14T17:39:05;97340.58;;;11.31;72.95
62703;BME280;66022;50.448;18.122;2023-03-14T17:43:19;97343.89;;;11.24;73.18
62703;BME280;66022;50.448;18.122;2023-03-14T17:47:33;97346.97;;;11.22;72.96
62703;BME280;66022;50.448;18.122;2023-03-14T17:51:47;97350.39;;;11.18;74.09
62703;BME280;66022;50.448;18.122;2023-03-14T17:56:01;97354.88;;;11.16;73.29
62703;BME280;66022;50.448;18.122;2023-03-14T18:00:15;97357.96;;;11.13;73.51
62703;BME280;66022;50.448;18.122;2023-03-14T18:04:30;97358.89;;;11.10;73.73
62703;BME280;66022;50.448;18.122;2023-03-14T18:08:44;97358.26;;;11.08;73.78
62703;BME280;66022;50.448;18.122;2023-03-14T18:12:57;97357.51;;;11.04;74.03
62703;BME280;66022;50.448;18.122;2023-03-14T18:17:11;97358.23;;;11.03;73.95
62703;BME280;66022;50.448;18.122;2023-03-14T18:21:25;97360.08;;;10.99;76.23
62703;BME280;66022;50.448;18.122;2023-03-14T18:25:39;97363.20;;;10.99;74.27
62703;BME280;66022;50.448;18.122;2023-03-14T18:29:53;97367.38;;;10.98;73.94
62703;BME280;66022;50.448;18.122;2023-03-14T18:34:07;97370.71;;;10.97;74.30
62703;BME280;66022;50.448;18.122;2023-03-14T18:38:21;97374.91;;;10.97;73.97
62703;BME280;66022;50.448;18.122;2023-03-14T18:42:35;97378.72;;;10.96;74.69
62703;BME280;66022;50.448;18.122;2023-03-14T18:46:49;97381.71;;;10.95;74.49
62703;BME280;66022;50.448;18.122;2023-03-14T18:51:03;97383.32;;;10.90;76.46
62703;BME280;66022;50.448;18.122;2023-03-14T18:55:17;97384.41;;;10.88;74.40
62703;BME280;66022;50.448;18.122;2023-03-14T18:59:31;97386.06;;;10.86;74.76
62703;BME280;66022;50.448;18.122;2023-03-14T19:03:45;97386.40;;;10.81;75.38
62703;BME280;66022;50.448;18.122;2023-03-14T19:07:59;97386.99;;;10.78;75.31
62703;BME280;66022;50.448;18.122;2023-03-14T19:12:13;97386.97;;;10.74;76.17
62703;BME280;66022;50.448;18.122;2023-03-14T19:16:27;97387.53;;;10.71;75.08
62703;BME280;66022;50.448;18.122;2023-03-14T19:20:41;97388.05;;;10.68;75.39
62703;BME280;66022;50.448;18.122;2023-03-14T19:24:55;97389.47;;;10.65;75.70
62703;BME280;66022;50.448;18.122;2023-03-14T19:29:09;97391.00;;;10.61;75.45
62703;BME280;66022;50.448;18.122;2023-03-14T19:33:23;97392.74;;;10.55;76.02
62703;BME280;66022;50.448;18.122;2023-03-14T19:37:38;97394.12;;;10.52;75.87
62703;BME280;66022;50.448;18.122;2023-03-14T19:41:51;97397.64;;;10.48;76.79
62703;BME280;66022;50.448;18.122;2023-03-14T19:46:07;97403.06;;;10.45;75.71
62703;BME280;66022;50.448;18.122;2023-03-14T19:50:22;97407.37;;;10.42;75.83
62703;BME280;66022;50.448;18.122;2023-03-14T19:54:33;97411.41;;;10.38;76.25
62703;BME280;66022;50.448;18.122;2023-03-14T19:58:47;97414.61;;;10.35;75.62
62703;BME280;66022;50.448;18.122;2023-03-14T20:03:01;97417.99;;;10.30;76.22
62703;BME280;66022;50.448;18.122;2023-03-14T20:07:15;97420.54;;;10.28;76.06
62703;BME280;66022;50.448;18.122;2023-03-14T20:11:32;97422.34;;;10.22;78.45
62703;BME280;66022;50.448;18.122;2023-03-14T20:15:45;97424.97;;;10.20;75.89
62703;BME280;66022;50.448;18.122;2023-03-14T20:20:00;97429.13;;;10.17;75.77
62703;BME280;66022;50.448;18.122;2023-03-14T20:24:11;97434.24;;;10.14;76.48
62703;BME280;66022;50.448;18.122;2023-03-14T20:28:25;97438.98;;;10.11;75.96
62703;BME280;66022;50.448;18.122;2023-03-14T20:32:39;97444.29;;;10.08;76.71
62703;BME280;66022;50.448;18.122;2023-03-14T20:36:53;97450.23;;;10.06;76.23
62703;BME280;66022;50.448;18.122;2023-03-14T20:41:07;97458.67;;;10.00;78.92
62703;BME280;66022;50.448;18.122;2023-03-14T20:45:23;97467.63;;;9.99;76.32
62703;BME280;66022;50.448;18.122;2023-03-14T20:49:36;97477.23;;;9.98;76.12
62703;BME280;66022;50.448;18.122;2023-03-14T20:53:49;97487.86;;;9.96;76.36
62703;BME280;66022;50.448;18.122;2023-03-14T20:58:03;97497.16;;;9.97;75.81
62703;BME280;66022;50.448;18.122;2023-03-14T21:02:17;97506.36;;;9.98;76.56
62703;BME280;66022;50.448;18.122;2023-03-14T21:06:31;97513.70;;;10.00;75.46
62703;BME280;66022;50.448;18.122;2023-03-14T21:10:46;97520.68;;;10.03;75.49
62703;BME280;66022;50.448;18.122;2023-03-14T21:14:59;97528.37;;;10.08;75.04
62703;BME280;66022;50.448;18.122;2023-03-14T21:19:13;97535.82;;;10.13;74.67
62703;BME280;66022;50.448;18.122;2023-03-14T21:23:27;97545.88;;;10.14;75.27
62703;BME280;66022;50.448;18.122;2023-03-14T21:27:41;97556.97;;;10.18;75.38
62703;BME280;66022;50.448;18.122;2023-03-14T21:31:55;97574.45;;;10.20;76.95
62703;BME280;66022;50.448;18.122;2023-03-14T21:36:09;97605.94;;;10.21;77.21
62703;BME280;66022;50.448;18.122;2023-03-14T21:40:23;97634.14;;;10.17;75.88
62703;BME280;66022;50.448;18.122;2023-03-14T21:44:37;97658.33;;;10.08;76.42
62703;BME280;66022;50.448;18.122;2023-03-14T21:48:51;97680.59;;;9.97;76.41
62703;BME280;66022;50.448;18.122;2023-03-14T21:53:06;97701.95;;;9.80;77.71
62703;BME280;66022;50.448;18.122;2023-03-14T21:57:19;97720.51;;;9.68;76.35
62703;BME280;66022;50.448;18.122;2023-03-14T22:01:34;97737.09;;;9.49;77.95
62703;BME280;66022;50.448;18.122;2023-03-14T22:05:48;97754.51;;;9.33;75.42
62703;BME280;66022;50.448;18.122;2023-03-14T22:10:02;97769.87;;;9.14;74.45
62703;BME280;66022;50.448;18.122;2023-03-14T22:14:16;97783.58;;;8.93;74.95
62703;BME280;66022;50.448;18.122;2023-03-14T22:18:30;97800.59;;;8.74;72.83
62703;BME280;66022;50.448;18.122;2023-03-14T22:22:44;97818.87;;;8.53;72.66
62703;BME280;66022;50.448;18.122;2023-03-14T22:26:58;97838.15;;;8.33;70.46
62703;BME280;66022;50.448;18.122;2023-03-14T22:31:12;97856.42;;;8.06;72.54
62703;BME280;66022;50.448;18.122;2023-03-14T22:35:26;97871.94;;;7.85;71.12
62703;BME280;66022;50.448;18.122;2023-03-14T22:39:40;97885.10;;;7.64;70.87
62703;BME280;66022;50.448;18.122;2023-03-14T22:43:54;97899.59;;;7.42;71.00
62703;BME280;66022;50.448;18.122;2023-03-14T22:48:08;97913.05;;;7.22;69.82
62703;BME280;66022;50.448;18.122;2023-03-14T22:52:22;97926.85;;;7.01;71.32
62703;BME280;66022;50.448;18.122;2023-03-14T22:56:36;97939.43;;;6.85;71.28
62703;BME280;66022;50.448;18.122;2023-03-14T23:00:50;97951.05;;;6.67;72.38
62703;BME280;66022;50.448;18.122;2023-03-14T23:05:04;97961.28;;;6.53;71.94
62703;BME280;66022;50.448;18.122;2023-03-14T23:09:18;97968.05;;;6.40;71.01
62703;BME280;66022;50.448;18.122;2023-03-14T23:13:32;97979.78;;;6.25;71.88
62703;BME280;66022;50.448;18.122;2023-03-14T23:17:46;97994.26;;;6.16;71.40
62703;BME280;66022;50.448;18.122;2023-03-14T23:22:00;98010.67;;;6.06;73.21
62703;BME280;66022;50.448;18.122;2023-03-14T23:26:15;98023.44;;;5.99;71.50